createdAt,value
2022-11-20T00:01:49.734Z,8.82
2022-11-20T00:04:51.332Z,8.72
2022-11-20T00:07:52.703Z,8.49
2022-11-20T00:10:54.098Z,8.74
2022-11-20T00:13:58.694Z,8.63
2022-11-20T00:17:00.112Z,8.70
2022-11-20T00:20:01.617Z,8.54
2022-11-20T00:23:03.132Z,8.64
2022-11-20T00:26:09.690Z,8.75
2022-11-20T00:29:11.627Z,8.72
2022-11-20T00:32:13.001Z,8.81
2022-11-20T00:35:14.580Z,8.86
2022-11-20T00:38:15.979Z,8.76
2022-11-20T00:41:17.548Z,8.73
2022-11-20T00:44:18.926Z,8.46
2022-11-20T00:47:20.306Z,8.49
2022-11-20T00:50:21.928Z,8.49
2022-11-20T00:53:23.929Z,8.65
2022-11-20T00:56:25.416Z,8.61
2022-11-20T00:59:26.827Z,8.50
2022-11-20T01:02:28.363Z,8.69
2022-11-20T01:05:29.791Z,8.59
2022-11-20T01:08:33.135Z,8.62
2022-11-20T01:11:38.570Z,8.51
2022-11-20T01:14:40.023Z,8.45
2022-11-20T01:17:41.382Z,8.48
2022-11-20T01:20:42.803Z,8.46
2022-11-20T01:23:45.325Z,8.52
2022-11-20T01:26:49.446Z,8.53
2022-11-20T01:29:51.268Z,8.52
2022-11-20T01:32:52.695Z,8.40
2022-11-20T01:35:54.444Z,8.39
2022-11-20T01:38:58.615Z,8.39
2022-11-20T01:42:18.495Z,8.45
2022-11-20T01:45:55.625Z,8.47
2022-11-20T01:49:03.346Z,8.33
2022-11-20T01:52:12.239Z,8.34
2022-11-20T01:55:22.915Z,8.24
2022-11-20T01:58:30.745Z,8.24
2022-11-20T02:01:34.150Z,8.31
2022-11-20T02:04:35.715Z,8.11
2022-11-20T02:07:37.928Z,8.14
2022-11-20T02:10:39.812Z,8.26
2022-11-20T02:13:44.070Z,8.33
2022-11-20T02:16:47.791Z,8.39
2022-11-20T02:19:49.216Z,8.27
2022-11-20T02:23:13.040Z,8.27
2022-11-20T02:26:16.924Z,8.00
2022-11-20T02:29:26.845Z,8.08
2022-11-20T02:32:31.222Z,8.15
2022-11-20T02:35:32.660Z,8.10
2022-11-20T02:38:34.030Z,8.11
2022-11-20T02:41:37.465Z,8.16
2022-11-20T02:44:38.869Z,8.10
2022-11-20T02:47:40.528Z,8.15
2022-11-20T02:50:41.962Z,8.05
2022-11-20T02:53:43.389Z,8.01
2022-11-20T02:56:44.835Z,8.12
2022-11-20T02:59:46.435Z,8.21
2022-11-20T03:02:47.818Z,8.31
2022-11-20T03:05:49.192Z,8.33
2022-11-20T03:08:50.676Z,8.43
2022-11-20T03:11:52.253Z,8.49
2022-11-20T03:14:53.655Z,8.40
2022-11-20T03:17:56.347Z,8.35
2022-11-20T03:20:59.804Z,8.34
2022-11-20T03:24:01.909Z,8.31
2022-11-20T03:27:03.308Z,8.24
2022-11-20T03:30:05.737Z,8.22
2022-11-20T03:33:07.171Z,8.15
2022-11-20T03:36:11.735Z,8.26
2022-11-20T03:39:13.211Z,8.43
2022-11-20T03:42:33.239Z,8.52
2022-11-20T03:45:34.739Z,8.43
2022-11-20T03:48:36.171Z,8.32
2022-11-20T03:51:37.629Z,8.27
2022-11-20T03:54:39.043Z,8.24
2022-11-20T03:57:40.468Z,8.01
2022-11-20T04:00:41.896Z,8.08
2022-11-20T04:03:44.289Z,8.08
2022-11-20T04:06:45.632Z,8.07
2022-11-20T04:09:47.036Z,8.15
2022-11-20T04:12:48.407Z,8.24
2022-11-20T04:15:49.870Z,7.83
2022-11-20T04:18:56.228Z,7.98
2022-11-20T04:21:57.599Z,7.91
2022-11-20T04:24:58.983Z,7.99
2022-11-20T04:28:00.439Z,8.02
2022-11-20T04:31:10.782Z,8.22
2022-11-20T04:34:12.621Z,8.13
2022-11-20T04:37:14.069Z,8.09
2022-11-20T04:40:15.509Z,8.03
2022-11-20T04:43:16.923Z,7.93
2022-11-20T04:46:20.448Z,8.08
2022-11-20T04:49:22.280Z,8.02
2022-11-20T04:52:23.870Z,8.07
2022-11-20T04:55:25.280Z,7.54
2022-11-20T04:58:26.666Z,7.77
2022-11-20T05:01:28.057Z,7.69
2022-11-20T05:04:29.639Z,7.83
2022-11-20T05:07:31.079Z,7.88
2022-11-20T05:10:32.539Z,7.92
2022-11-20T05:13:34.318Z,7.98
2022-11-20T05:16:36.929Z,8.00
2022-11-20T05:19:38.239Z,7.94
2022-11-20T05:22:39.598Z,7.83
2022-11-20T05:25:40.963Z,7.78
2022-11-20T05:28:42.439Z,7.95
2022-11-20T05:31:43.820Z,7.99
2022-11-20T05:34:45.189Z,8.00
2022-11-20T05:37:46.574Z,7.99
2022-11-20T05:40:47.954Z,7.93
2022-11-20T05:43:50.727Z,8.03
2022-11-20T05:46:52.270Z,7.96
2022-11-20T05:49:53.801Z,7.96
2022-11-20T05:52:55.242Z,8.06
2022-11-20T05:55:58.090Z,7.99
2022-11-20T05:58:59.618Z,7.85
2022-11-20T06:02:01.049Z,7.80
2022-11-20T06:05:02.446Z,7.81
2022-11-20T06:08:03.928Z,7.80
2022-11-20T06:11:11.768Z,7.70
2022-11-20T06:14:13.164Z,7.85
2022-11-20T06:17:14.610Z,7.84
2022-11-20T06:20:16.116Z,7.87
2022-11-20T06:23:17.562Z,7.71
2022-11-20T06:26:24.482Z,7.90
2022-11-20T06:29:28.802Z,7.75
2022-11-20T06:32:34.202Z,7.88
2022-11-20T06:35:35.845Z,7.80
2022-11-20T06:38:38.000Z,7.97
2022-11-20T06:41:39.394Z,7.96
2022-11-20T06:44:40.821Z,7.96
2022-11-20T06:47:42.226Z,7.98
2022-11-20T06:50:43.636Z,7.93
2022-11-20T06:53:45.443Z,7.95
2022-11-20T06:56:49.984Z,7.80
2022-11-20T06:59:51.493Z,7.86
2022-11-20T07:02:52.880Z,8.00
2022-11-20T07:05:58.796Z,7.71
2022-11-20T07:09:00.254Z,7.99
2022-11-20T07:12:01.719Z,7.98
2022-11-20T07:15:03.527Z,7.98
2022-11-20T07:18:04.950Z,7.79
2022-11-20T07:21:10.932Z,7.87
2022-11-20T07:24:12.393Z,7.85
2022-11-20T07:27:13.977Z,7.87
2022-11-20T07:30:16.519Z,7.96
2022-11-20T07:33:18.107Z,7.89
2022-11-20T07:36:19.564Z,7.65
2022-11-20T07:39:21.252Z,7.95
2022-11-20T07:42:23.011Z,7.99
2022-11-20T07:45:26.131Z,7.95
2022-11-20T07:48:27.790Z,7.87
2022-11-20T07:51:30.336Z,7.78
2022-11-20T07:54:31.778Z,7.79
2022-11-20T07:57:33.215Z,7.61
2022-11-20T08:00:34.695Z,7.89
2022-11-20T08:03:38.708Z,7.89
2022-11-20T08:06:40.217Z,7.92
2022-11-20T08:09:42.542Z,7.68
2022-11-20T08:13:06.647Z,7.66
2022-11-20T08:16:08.030Z,7.99
2022-11-20T08:19:09.717Z,7.89
2022-11-20T08:22:11.101Z,7.77
2022-11-20T08:25:12.487Z,7.82
2022-11-20T08:28:20.688Z,7.84
2022-11-20T08:31:25.417Z,7.89
2022-11-20T08:34:26.837Z,7.81
2022-11-20T08:37:28.214Z,8.03
2022-11-20T08:40:29.705Z,7.70
2022-11-20T08:43:31.197Z,7.82
2022-11-20T08:46:36.329Z,7.76
2022-11-20T08:49:37.807Z,7.85
2022-11-20T08:52:40.031Z,7.39
2022-11-20T08:55:41.504Z,8.00
2022-11-20T08:59:10.330Z,8.13
2022-11-20T09:02:04.426Z,7.93
2022-11-20T09:05:06.209Z,8.05
2022-11-20T09:08:07.720Z,7.96
2022-11-20T09:11:09.300Z,7.79
2022-11-20T09:14:10.755Z,8.10
2022-11-20T09:17:14.551Z,7.94
2022-11-20T09:20:17.086Z,7.99
2022-11-20T09:23:18.988Z,8.16
2022-11-20T09:26:20.466Z,8.13
2022-11-20T09:29:22.576Z,8.32
2022-11-20T09:32:24.283Z,8.31
2022-11-20T09:35:25.716Z,8.44
2022-11-20T09:38:27.147Z,8.46
2022-11-20T09:41:48.731Z,8.41
2022-11-20T09:45:16.996Z,8.43
2022-11-20T09:48:57.444Z,8.41
2022-11-20T09:52:27.555Z,8.16
2022-11-20T09:55:31.770Z,8.34
2022-11-20T09:58:42.769Z,8.49
2022-11-20T10:01:45.621Z,8.66
2022-11-20T10:05:09.028Z,8.69
2022-11-20T10:08:24.956Z,8.47
2022-11-20T10:11:55.975Z,8.70
2022-11-20T10:15:06.523Z,8.45
2022-11-20T10:18:28.203Z,8.93
2022-11-20T10:21:48.121Z,8.91
2022-11-20T10:25:20.789Z,8.95
2022-11-20T10:28:40.271Z,8.60
2022-11-20T10:31:45.490Z,9.00
2022-11-20T10:35:06.048Z,8.95
2022-11-20T10:38:54.603Z,8.75
2022-11-20T10:41:57.554Z,8.49
2022-11-20T10:45:12.383Z,8.81
2022-11-20T10:48:33.116Z,8.77
2022-11-20T10:51:56.098Z,8.71
2022-11-20T10:55:26.525Z,8.82
2022-11-20T10:58:30.960Z,9.20
2022-11-20T11:01:32.440Z,9.68
2022-11-20T11:04:43.654Z,9.77
2022-11-20T11:07:46.953Z,9.48
2022-11-20T11:10:57.346Z,9.69
2022-11-20T11:14:13.260Z,10.15
2022-11-20T11:17:32.837Z,10.14
2022-11-20T11:20:34.422Z,10.21
2022-11-20T11:23:39.849Z,10.18
2022-11-20T11:27:00.178Z,9.95
2022-11-20T11:30:14.945Z,9.57
2022-11-20T11:33:25.159Z,9.68
2022-11-20T11:36:26.604Z,9.96
2022-11-20T11:39:31.383Z,9.90
2022-11-20T11:42:33.067Z,10.03
2022-11-20T11:45:34.500Z,9.88
2022-11-20T11:48:35.910Z,9.72
2022-11-20T11:51:47.815Z,9.68
2022-11-20T11:54:57.765Z,9.77
2022-11-20T11:58:15.109Z,9.67
2022-11-20T12:01:45.738Z,9.42
2022-11-20T12:05:14.288Z,9.55
2022-11-20T12:08:28.545Z,9.57
2022-11-20T12:11:55.386Z,9.71
2022-11-20T12:14:58.009Z,9.80
2022-11-20T12:17:59.598Z,10.10
2022-11-20T12:21:29.027Z,9.98
2022-11-20T12:24:38.717Z,9.78
2022-11-20T12:28:17.490Z,10.35
2022-11-20T12:31:34.681Z,10.73
2022-11-20T12:34:41.463Z,10.35
2022-11-20T12:37:55.615Z,10.37
2022-11-20T12:41:40.191Z,9.83
2022-11-20T12:45:10.611Z,10.14
2022-11-20T12:48:35.944Z,10.40
2022-11-20T12:51:58.851Z,10.39
2022-11-20T12:55:29.495Z,10.22
2022-11-20T12:58:45.606Z,9.99
2022-11-20T13:01:56.773Z,10.13
2022-11-20T13:05:43.354Z,10.10
2022-11-20T13:08:56.869Z,10.08
2022-11-20T13:12:27.185Z,10.15
2022-11-20T13:15:37.563Z,10.31
2022-11-20T13:18:42.554Z,10.28
2022-11-20T13:21:52.444Z,10.34
2022-11-20T13:24:54.003Z,10.40
2022-11-20T13:27:58.068Z,10.26
2022-11-20T13:31:00.162Z,10.23
2022-11-20T13:34:05.874Z,10.17
2022-11-20T13:37:29.520Z,10.04
2022-11-20T13:40:31.024Z,10.15
2022-11-20T13:43:36.057Z,10.17
2022-11-20T13:46:43.723Z,10.13
2022-11-20T13:49:45.918Z,10.26
2022-11-20T13:53:09.227Z,10.37
2022-11-20T13:56:28.012Z,10.23
2022-11-20T13:59:48.429Z,10.13
2022-11-20T14:03:17.254Z,10.08
2022-11-20T14:06:41.516Z,9.98
2022-11-20T14:09:54.415Z,9.94
2022-11-20T14:12:56.476Z,9.84
2022-11-20T14:15:59.061Z,9.83
2022-11-20T14:19:20.385Z,9.85
2022-11-20T14:22:27.314Z,9.75
2022-11-20T14:25:28.929Z,9.57
2022-11-20T14:28:31.788Z,9.69
2022-11-20T14:31:33.367Z,9.67
2022-11-20T14:34:39.977Z,9.49
2022-11-20T14:37:42.138Z,9.62
2022-11-20T14:40:44.360Z,9.66
2022-11-20T14:43:48.639Z,9.54
2022-11-20T14:46:52.179Z,9.54
2022-11-20T14:49:55.782Z,9.47
2022-11-20T14:52:59.751Z,9.52
2022-11-20T14:56:02.911Z,9.52
2022-11-20T14:59:04.488Z,9.52
2022-11-20T15:02:13.741Z,9.45
2022-11-20T15:05:16.553Z,9.34
2022-11-20T15:08:18.521Z,9.36
2022-11-20T15:11:34.331Z,9.32
2022-11-20T15:14:37.533Z,9.31
2022-11-20T15:17:40.960Z,9.03
2022-11-20T15:20:43.522Z,9.08
2022-11-20T15:23:45.349Z,9.01
2022-11-20T15:26:46.847Z,9.06
2022-11-20T15:29:48.365Z,8.91
2022-11-20T15:32:49.940Z,8.75
2022-11-20T15:35:51.450Z,8.87
2022-11-20T15:38:53.089Z,8.96
2022-11-20T15:41:54.547Z,9.04
2022-11-20T15:44:56.128Z,9.00
2022-11-20T15:47:57.679Z,8.77
2022-11-20T15:51:27.523Z,8.85
2022-11-20T15:54:29.046Z,8.98
2022-11-20T15:57:30.521Z,9.00
2022-11-20T16:00:32.062Z,8.87
2022-11-20T16:03:33.794Z,9.07
2022-11-20T16:06:35.236Z,9.06
2022-11-20T16:09:36.783Z,9.03
2022-11-20T16:12:57.036Z,9.08
2022-11-20T16:16:00.448Z,8.87
2022-11-20T16:19:02.219Z,8.94
2022-11-20T16:22:04.202Z,8.75
2022-11-20T16:25:06.139Z,8.83
2022-11-20T16:28:07.704Z,8.68
2022-11-20T16:31:14.468Z,8.62
2022-11-20T16:34:17.423Z,8.75
2022-11-20T16:37:18.845Z,8.86
2022-11-20T16:40:20.389Z,8.95
2022-11-20T16:43:21.828Z,8.77
2022-11-20T16:46:24.990Z,8.84
2022-11-20T16:49:26.456Z,8.67
2022-11-20T16:52:28.371Z,8.82
2022-11-20T16:55:29.783Z,8.86
2022-11-20T16:58:31.233Z,8.81
2022-11-20T17:01:32.933Z,8.84
2022-11-20T17:04:34.536Z,8.87
2022-11-20T17:07:37.816Z,8.83
2022-11-20T17:10:39.289Z,8.71
2022-11-20T17:13:40.929Z,8.73
2022-11-20T17:16:42.938Z,8.94
2022-11-20T17:19:44.387Z,8.96
2022-11-20T17:22:46.029Z,8.83
2022-11-20T17:25:47.431Z,8.91
2022-11-20T17:29:01.144Z,8.81
2022-11-20T17:32:02.858Z,8.62
2022-11-20T17:35:04.570Z,8.92
2022-11-20T17:38:06.034Z,8.76
2022-11-20T17:41:08.803Z,8.92
2022-11-20T17:44:12.499Z,8.85
2022-11-20T17:47:14.000Z,8.80
2022-11-20T17:50:15.513Z,8.40
2022-11-20T17:53:17.093Z,8.42
2022-11-20T17:56:37.695Z,8.46
2022-11-20T17:59:39.109Z,7.66
2022-11-20T18:02:40.574Z,7.95
2022-11-20T18:05:42.061Z,7.78
2022-11-20T18:08:43.821Z,8.12
2022-11-20T18:11:45.488Z,7.64
2022-11-20T18:14:47.177Z,7.53
2022-11-20T18:17:48.759Z,7.65
2022-11-20T18:20:53.585Z,7.92
2022-11-20T18:23:56.086Z,7.73
2022-11-20T18:26:58.806Z,7.79
2022-11-20T18:30:00.187Z,7.87
2022-11-20T18:33:01.780Z,7.62
2022-11-20T18:36:21.835Z,7.36
2022-11-20T18:39:24.122Z,7.41
2022-11-20T18:42:44.169Z,7.47
2022-11-20T18:45:45.783Z,6.98
2022-11-20T18:48:47.299Z,7.49
2022-11-20T18:51:48.786Z,7.19
2022-11-20T18:54:50.708Z,7.22
2022-11-20T18:57:52.541Z,6.94
2022-11-20T19:00:53.945Z,6.97
2022-11-20T19:03:55.613Z,6.77
2022-11-20T19:06:57.096Z,6.83
2022-11-20T19:10:03.292Z,6.58
2022-11-20T19:13:05.231Z,6.72
2022-11-20T19:16:09.591Z,7.00
2022-11-20T19:19:11.901Z,6.86
2022-11-20T19:22:13.401Z,6.95
2022-11-20T19:25:14.828Z,7.13
2022-11-20T19:28:16.392Z,7.07
2022-11-20T19:31:26.329Z,7.19
2022-11-20T19:34:27.730Z,7.18
2022-11-20T19:37:29.208Z,7.16
2022-11-20T19:40:30.792Z,7.20
2022-11-20T19:43:32.488Z,7.32
2022-11-20T19:46:35.647Z,7.13
2022-11-20T19:49:37.339Z,6.90
2022-11-20T19:52:38.747Z,7.08
2022-11-20T19:55:40.143Z,7.22
2022-11-20T19:58:42.090Z,6.95
2022-11-20T20:01:43.637Z,7.28
2022-11-20T20:04:46.861Z,7.44
2022-11-20T20:07:48.263Z,7.06
2022-11-20T20:10:49.652Z,6.99
2022-11-20T20:13:51.441Z,7.10
2022-11-20T20:16:52.873Z,7.14
2022-11-20T20:19:54.379Z,6.92
2022-11-20T20:22:55.847Z,6.96
2022-11-20T20:25:57.343Z,6.71
2022-11-20T20:29:00.698Z,6.88
2022-11-20T20:32:02.328Z,6.75
2022-11-20T20:35:05.308Z,6.68
2022-11-20T20:38:06.756Z,7.01
2022-11-20T20:41:08.433Z,7.06
2022-11-20T20:44:28.395Z,7.14
2022-11-20T20:47:31.625Z,7.31
2022-11-20T20:50:33.115Z,7.21
2022-11-20T20:53:34.524Z,7.09
2022-11-20T20:56:35.977Z,7.21
2022-11-20T20:59:37.418Z,7.05
2022-11-20T21:02:38.840Z,7.22
2022-11-20T21:05:40.272Z,6.96
2022-11-20T21:08:44.244Z,6.80
2022-11-20T21:11:46.148Z,7.09
2022-11-20T21:14:47.636Z,6.92
2022-11-20T21:17:49.103Z,6.89
2022-11-20T21:21:09.649Z,6.91
2022-11-20T21:24:11.064Z,6.83
2022-11-20T21:27:12.481Z,6.97
2022-11-20T21:30:14.058Z,7.01
2022-11-20T21:33:15.470Z,7.15
2022-11-20T21:36:19.603Z,6.94
2022-11-20T21:39:21.880Z,6.96
2022-11-20T21:42:23.220Z,6.96
2022-11-20T21:45:24.630Z,7.11
2022-11-20T21:48:29.819Z,7.11
2022-11-20T21:51:31.369Z,7.02
2022-11-20T21:54:35.630Z,6.99
2022-11-20T21:57:37.031Z,6.98
2022-11-20T22:00:38.407Z,6.94
2022-11-20T22:03:40.481Z,6.98
2022-11-20T22:06:42.176Z,7.06
2022-11-20T22:09:44.020Z,6.93
2022-11-20T22:12:45.389Z,6.72
2022-11-20T22:16:00.253Z,6.80
2022-11-20T22:19:03.229Z,6.98
2022-11-20T22:22:04.617Z,7.04
2022-11-20T22:25:06.281Z,6.97
2022-11-20T22:28:07.653Z,6.84
2022-11-20T22:31:11.080Z,6.91
2022-11-20T22:34:13.235Z,7.01
2022-11-20T22:37:14.731Z,6.98
2022-11-20T22:40:16.460Z,6.89
2022-11-20T22:43:17.891Z,6.85
2022-11-20T22:46:19.971Z,7.04
2022-11-20T22:49:21.591Z,7.12
2022-11-20T22:52:22.991Z,6.93
2022-11-20T22:55:24.385Z,6.92
2022-11-20T22:58:31.261Z,6.96
2022-11-20T23:01:34.807Z,7.03
2022-11-20T23:04:36.186Z,7.10
2022-11-20T23:07:40.982Z,6.97
2022-11-20T23:10:42.701Z,6.62
2022-11-20T23:13:44.996Z,6.62
2022-11-20T23:16:46.412Z,6.89
2022-11-20T23:19:47.795Z,6.81
2022-11-20T23:22:49.326Z,6.89
2022-11-20T23:25:50.719Z,6.91
2022-11-20T23:28:54.293Z,6.67
2022-11-20T23:31:55.711Z,6.73
2022-11-20T23:34:57.107Z,6.79
2022-11-20T23:37:58.496Z,6.79
2022-11-20T23:41:00.208Z,6.86
2022-11-20T23:44:01.591Z,6.75
2022-11-20T23:47:03.017Z,7.07
2022-11-20T23:50:04.738Z,6.97
2022-11-20T23:53:06.731Z,6.98
2022-11-20T23:56:08.154Z,6.92
2022-11-20T23:59:09.718Z,6.97
